Ana Sayfa
METAR-TAF:

METAR-TAF

Havaalanları :

Caracas, Venezuela

Enlem: 10-36N, Boylam: 066-59W, yükseklik: 43 m

Güncel hava durumu gözlemi

Rapor saat 05:02 UTC de 58 dakika önce yapıldı.
Rüzgar doğu/kuzeydoğudan 5 kt
Sıcaklık
Basınç 1013 hPa

METAR: SVMI 010502Z AUTO 07005KT NCD ///// Q1013

Saat: 02:00 (06:00 UTC)

Tahmin

Rapor saat 04:00 UTC de 2 saat ve 0 dakika önce yapıldı.
Ayın 01'si saat 06 UTC'den ayın 02'si saat 06 UTC'ye kadar geçerli Tahmin
Rüzgar doğudan 3 kt
Görüş mesafesi 10 km veya daha fazla
1600 ft yükseklikte parçalı bulutlu
Dönüşüyor
ayın 01'si saat 06 UTC'den ayın 01'si saat 10 UTC'ye kadar
Rüzgar doğu/kuzeydoğudan 3 kt
Görüş mesafesi 10 km veya daha fazla
3000 ft yükseklikte parçalı bulutlu

TAF: SVMI 010400Z 0106/0206 09003KT 9999 SCT016 TX30/19Z TN23/09Z BECMG 0106/0110 07003KT 9999 SCT030

4.000'den fazla havaalanı için hava durumu gözlemleri ve tahminleri (METAR ve TAF raporları).

Kullanılabilir istasyonlar harita üzerinde sarı ve kırmızı noktalarla gösterilir.

İstasyonun adını görmek için fareyi noktanın üzerinde gezdirin.

Sonrasında hava gözlem ve tahminlerini görmek için tıklayın.

Haritayı değiştirmek için: yaklaştırmak için siyah artı işaretli yeşil düğmeye ve uzaklaştırmak için de eksi işaretli düğmeye hızla tıklayın; bitişik haritalar için yeşil okları kullanın.


METAR-TAF: